Clima Ilopango International Airport
Currently
Currently
Currently
METAR
MSSS 302250Z 19007KT 9999 SCT050 28/23 Q1014 A2996 MSSS 302150Z 15002KT 9999 SCT048 29/22 Q1014 A2996 MSSS 302050Z 16005KT 9999 SCT045 30/20 Q1015 A2997 TAF MSSS 302125Z 0100/0124 35005KT 9999 FEW027 FEW037CB TX31/0118Z TN21/0110Z PROB40 TEMPO 0106/0109 03007KT 6000 TSRA SCT017 SCT037CB FM010900 34008KT 9999 FEW020 FM011800 20007KT 9999 SCT020 FEW037CB SCT047
TAF
MSSS 302125Z 0100/0124 35005KT 9999 FEW027 FEW037CB TX31/0118Z TN21/0110Z PROB40 TEMPO 0106/0109 03007KT 6000 TSRA SCT017 SCT037CB FM010900 34008KT 9999 FEW020 FM011800 20007KT 9999 SCT020 FEW037CB SCT047

Cámaras Aeroclub

Norte

Este

Sur

Oeste

AIS/AIP El Salvador

Autoridad de Aviación Civil (AAC) El Salvador

VER DOCUMENTO